sensor_id;sensor_type;location;lat;lon;timestamp;P1;durP1;ratioP1;P2;durP2;ratioP2
45970;SDS011;31681;48.982;8.394;2023-05-14T00:00:21;7.78;;;6.88;;
45970;SDS011;31681;48.982;8.394;2023-05-14T00:02:46;8.52;;;7.20;;
45970;SDS011;31681;48.982;8.394;2023-05-14T00:05:11;8.75;;;7.15;;
45970;SDS011;31681;48.982;8.394;2023-05-14T00:07:37;9.13;;;7.45;;
45970;SDS011;31681;48.982;8.394;2023-05-14T00:10:02;8.18;;;7.22;;
45970;SDS011;31681;48.982;8.394;2023-05-14T00:12:28;8.25;;;7.20;;
45970;SDS011;31681;48.982;8.394;2023-05-14T00:14:54;8.65;;;7.45;;
45970;SDS011;31681;48.982;8.394;2023-05-14T00:17:19;7.78;;;6.97;;
45970;SDS011;31681;48.982;8.394;2023-05-14T00:19:45;8.98;;;7.05;;
45970;SDS011;31681;48.982;8.394;2023-05-14T00:22:10;9.40;;;7.88;;
45970;SDS011;31681;48.982;8.394;2023-05-14T00:24:36;7.95;;;7.00;;
45970;SDS011;31681;48.982;8.394;2023-05-14T00:27:01;9.80;;;7.13;;
45970;SDS011;31681;48.982;8.394;2023-05-14T00:29:27;8.50;;;7.32;;
45970;SDS011;31681;48.982;8.394;2023-05-14T00:31:52;8.90;;;7.85;;
45970;SDS011;31681;48.982;8.394;2023-05-14T00:34:18;8.65;;;7.35;;
45970;SDS011;31681;48.982;8.394;2023-05-14T00:36:43;10.48;;;7.68;;
45970;SDS011;31681;48.982;8.394;2023-05-14T00:39:09;9.25;;;7.85;;
45970;SDS011;31681;48.982;8.394;2023-05-14T00:41:34;10.85;;;7.68;;
45970;SDS011;31681;48.982;8.394;2023-05-14T00:43:59;10.32;;;7.90;;
45970;SDS011;31681;48.982;8.394;2023-05-14T00:46:25;9.70;;;7.22;;
45970;SDS011;31681;48.982;8.394;2023-05-14T00:48:51;9.95;;;6.63;;
45970;SDS011;31681;48.982;8.394;2023-05-14T00:51:16;9.88;;;8.10;;
45970;SDS011;31681;48.982;8.394;2023-05-14T00:53:43;8.95;;;7.75;;
45970;SDS011;31681;48.982;8.394;2023-05-14T00:56:09;12.35;;;7.88;;
45970;SDS011;31681;48.982;8.394;2023-05-14T00:58:34;8.70;;;7.53;;
45970;SDS011;31681;48.982;8.394;2023-05-14T01:01:00;9.35;;;7.88;;
45970;SDS011;31681;48.982;8.394;2023-05-14T01:03:25;10.65;;;7.30;;
45970;SDS011;31681;48.982;8.394;2023-05-14T01:11:05;8.75;;;7.43;;
45970;SDS011;31681;48.982;8.394;2023-05-14T01:16:17;10.25;;;7.43;;
45970;SDS011;31681;48.982;8.394;2023-05-14T01:18:43;10.70;;;7.25;;
45970;SDS011;31681;48.982;8.394;2023-05-14T01:23:54;9.50;;;7.20;;
45970;SDS011;31681;48.982;8.394;2023-05-14T01:26:19;10.52;;;7.93;;
45970;SDS011;31681;48.982;8.394;2023-05-14T01:28:45;7.32;;;6.63;;
45970;SDS011;31681;48.982;8.394;2023-05-14T01:31:15;9.23;;;6.60;;
45970;SDS011;31681;48.982;8.394;2023-05-14T01:33:42;9.18;;;7.15;;
45970;SDS011;31681;48.982;8.394;2023-05-14T01:36:08;9.10;;;6.88;;
45970;SDS011;31681;48.982;8.394;2023-05-14T01:38:34;8.38;;;7.55;;
45970;SDS011;31681;48.982;8.394;2023-05-14T01:41:00;7.68;;;6.82;;
45970;SDS011;31681;48.982;8.394;2023-05-14T01:43:26;10.20;;;6.80;;
45970;SDS011;31681;48.982;8.394;2023-05-14T01:45:52;7.35;;;6.50;;
45970;SDS011;31681;48.982;8.394;2023-05-14T01:48:19;7.53;;;6.47;;
45970;SDS011;31681;48.982;8.394;2023-05-14T01:50:45;7.80;;;6.88;;
45970;SDS011;31681;48.982;8.394;2023-05-14T01:53:10;8.82;;;6.72;;
45970;SDS011;31681;48.982;8.394;2023-05-14T01:55:35;8.48;;;7.20;;
45970;SDS011;31681;48.982;8.394;2023-05-14T01:58:01;8.57;;;6.78;;
45970;SDS011;31681;48.982;8.394;2023-05-14T02:00:26;8.38;;;7.20;;
45970;SDS011;31681;48.982;8.394;2023-05-14T02:02:52;7.18;;;6.38;;
45970;SDS011;31681;48.982;8.394;2023-05-14T02:05:17;8.80;;;7.22;;
45970;SDS011;31681;48.982;8.394;2023-05-14T02:07:43;8.02;;;7.05;;
45970;SDS011;31681;48.982;8.394;2023-05-14T02:10:08;8.20;;;6.90;;
45970;SDS011;31681;48.982;8.394;2023-05-14T02:12:34;8.23;;;7.00;;
45970;SDS011;31681;48.982;8.394;2023-05-14T02:15:00;9.77;;;7.63;;
45970;SDS011;31681;48.982;8.394;2023-05-14T02:17:26;7.95;;;7.13;;
45970;SDS011;31681;48.982;8.394;2023-05-14T02:19:51;9.00;;;7.55;;
45970;SDS011;31681;48.982;8.394;2023-05-14T02:22:17;8.52;;;7.63;;
45970;SDS011;31681;48.982;8.394;2023-05-14T02:24:42;9.93;;;7.78;;
45970;SDS011;31681;48.982;8.394;2023-05-14T02:27:08;11.38;;;7.22;;
45970;SDS011;31681;48.982;8.394;2023-05-14T02:29:33;8.90;;;7.22;;
45970;SDS011;31681;48.982;8.394;2023-05-14T02:31:58;9.25;;;7.22;;
45970;SDS011;31681;48.982;8.394;2023-05-14T02:34:24;9.35;;;7.45;;
45970;SDS011;31681;48.982;8.394;2023-05-14T02:36:49;9.95;;;7.57;;
45970;SDS011;31681;48.982;8.394;2023-05-14T02:39:14;9.23;;;7.57;;
45970;SDS011;31681;48.982;8.394;2023-05-14T02:41:41;9.30;;;7.65;;
45970;SDS011;31681;48.982;8.394;2023-05-14T02:44:06;9.25;;;8.27;;
45970;SDS011;31681;48.982;8.394;2023-05-14T02:46:32;10.50;;;7.70;;
45970;SDS011;31681;48.982;8.394;2023-05-14T02:48:57;10.10;;;8.43;;
45970;SDS011;31681;48.982;8.394;2023-05-14T02:51:23;10.55;;;8.48;;
45970;SDS011;31681;48.982;8.394;2023-05-14T02:53:48;9.77;;;7.72;;
45970;SDS011;31681;48.982;8.394;2023-05-14T02:56:14;8.52;;;7.60;;
45970;SDS011;31681;48.982;8.394;2023-05-14T02:58:39;9.20;;;7.57;;
45970;SDS011;31681;48.982;8.394;2023-05-14T03:01:05;8.60;;;7.20;;
45970;SDS011;31681;48.982;8.394;2023-05-14T03:03:30;9.80;;;7.30;;
45970;SDS011;31681;48.982;8.394;2023-05-14T03:05:56;7.95;;;7.15;;
45970;SDS011;31681;48.982;8.394;2023-05-14T03:08:21;9.20;;;7.45;;
45970;SDS011;31681;48.982;8.394;2023-05-14T03:10:46;10.23;;;6.63;;
45970;SDS011;31681;48.982;8.394;2023-05-14T03:13:12;7.88;;;6.85;;
45970;SDS011;31681;48.982;8.394;2023-05-14T03:15:39;8.20;;;7.00;;
45970;SDS011;31681;48.982;8.394;2023-05-14T03:18:04;8.98;;;6.55;;
45970;SDS011;31681;48.982;8.394;2023-05-14T03:20:30;7.93;;;6.50;;
45970;SDS011;31681;48.982;8.394;2023-05-14T03:22:56;6.95;;;6.25;;
45970;SDS011;31681;48.982;8.394;2023-05-14T03:25:21;7.47;;;6.78;;
45970;SDS011;31681;48.982;8.394;2023-05-14T03:27:47;8.60;;;6.78;;
45970;SDS011;31681;48.982;8.394;2023-05-14T03:30:12;10.40;;;6.20;;
45970;SDS011;31681;48.982;8.394;2023-05-14T03:32:38;7.32;;;6.57;;
45970;SDS011;31681;48.982;8.394;2023-05-14T03:35:03;8.07;;;6.28;;
45970;SDS011;31681;48.982;8.394;2023-05-14T03:37:30;8.02;;;6.43;;
45970;SDS011;31681;48.982;8.394;2023-05-14T03:39:56;7.50;;;6.13;;
45970;SDS011;31681;48.982;8.394;2023-05-14T03:42:21;7.30;;;6.60;;
45970;SDS011;31681;48.982;8.394;2023-05-14T03:44:47;8.68;;;6.32;;
45970;SDS011;31681;48.982;8.394;2023-05-14T03:47:12;6.82;;;6.13;;
45970;SDS011;31681;48.982;8.394;2023-05-14T03:49:37;8.13;;;6.03;;
45970;SDS011;31681;48.982;8.394;2023-05-14T03:52:03;7.63;;;6.57;;
45970;SDS011;31681;48.982;8.394;2023-05-14T03:54:29;7.95;;;6.93;;
45970;SDS011;31681;48.982;8.394;2023-05-14T03:56:54;7.72;;;6.35;;
45970;SDS011;31681;48.982;8.394;2023-05-14T03:59:19;9.10;;;6.28;;
45970;SDS011;31681;48.982;8.394;2023-05-14T04:01:45;6.80;;;6.00;;
45970;SDS011;31681;48.982;8.394;2023-05-14T04:04:10;8.10;;;5.97;;
45970;SDS011;31681;48.982;8.394;2023-05-14T04:06:35;6.68;;;5.93;;
45970;SDS011;31681;48.982;8.394;2023-05-14T04:09:01;7.68;;;5.70;;
45970;SDS011;31681;48.982;8.394;2023-05-14T04:11:27;7.22;;;5.97;;
45970;SDS011;31681;48.982;8.394;2023-05-14T04:13:52;8.23;;;6.45;;
45970;SDS011;31681;48.982;8.394;2023-05-14T04:16:18;6.82;;;6.10;;
45970;SDS011;31681;48.982;8.394;2023-05-14T04:18:43;8.77;;;6.38;;
45970;SDS011;31681;48.982;8.394;2023-05-14T04:21:09;7.05;;;6.18;;
45970;SDS011;31681;48.982;8.394;2023-05-14T04:23:34;8.52;;;6.05;;
45970;SDS011;31681;48.982;8.394;2023-05-14T04:25:59;6.68;;;5.72;;
45970;SDS011;31681;48.982;8.394;2023-05-14T04:28:25;9.02;;;6.03;;
45970;SDS011;31681;48.982;8.394;2023-05-14T04:30:50;9.02;;;6.60;;
45970;SDS011;31681;48.982;8.394;2023-05-14T04:33:16;7.95;;;6.50;;
45970;SDS011;31681;48.982;8.394;2023-05-14T04:35:42;8.98;;;6.22;;
45970;SDS011;31681;48.982;8.394;2023-05-14T04:38:07;8.63;;;6.13;;
45970;SDS011;31681;48.982;8.394;2023-05-14T04:40:34;8.57;;;7.15;;
45970;SDS011;31681;48.982;8.394;2023-05-14T04:42:59;9.35;;;6.10;;
45970;SDS011;31681;48.982;8.394;2023-05-14T04:45:24;8.73;;;6.00;;
45970;SDS011;31681;48.982;8.394;2023-05-14T04:47:50;7.45;;;6.10;;
45970;SDS011;31681;48.982;8.394;2023-05-14T04:50:16;7.70;;;5.95;;
45970;SDS011;31681;48.982;8.394;2023-05-14T04:52:41;8.32;;;5.97;;
45970;SDS011;31681;48.982;8.394;2023-05-14T04:55:07;7.78;;;6.97;;
45970;SDS011;31681;48.982;8.394;2023-05-14T04:57:32;7.35;;;6.07;;
45970;SDS011;31681;48.982;8.394;2023-05-14T04:59:58;7.88;;;6.70;;
45970;SDS011;31681;48.982;8.394;2023-05-14T05:02:23;7.85;;;6.35;;
45970;SDS011;31681;48.982;8.394;2023-05-14T05:04:48;6.80;;;5.80;;
45970;SDS011;31681;48.982;8.394;2023-05-14T05:07:14;7.80;;;6.25;;
45970;SDS011;31681;48.982;8.394;2023-05-14T05:09:39;7.90;;;6.18;;
45970;SDS011;31681;48.982;8.394;2023-05-14T05:12:05;6.93;;;6.10;;
45970;SDS011;31681;48.982;8.394;2023-05-14T05:14:30;6.82;;;5.90;;
45970;SDS011;31681;48.982;8.394;2023-05-14T05:17:03;7.88;;;7.05;;
45970;SDS011;31681;48.982;8.394;2023-05-14T05:19:28;7.80;;;6.47;;
45970;SDS011;31681;48.982;8.394;2023-05-14T05:21:53;7.50;;;5.93;;
45970;SDS011;31681;48.982;8.394;2023-05-14T05:24:19;8.00;;;5.88;;
45970;SDS011;31681;48.982;8.394;2023-05-14T05:26:44;8.80;;;5.95;;
45970;SDS011;31681;48.982;8.394;2023-05-14T05:29:10;8.23;;;5.78;;
45970;SDS011;31681;48.982;8.394;2023-05-14T05:31:35;7.03;;;6.00;;
45970;SDS011;31681;48.982;8.394;2023-05-14T05:34:01;7.70;;;6.40;;
45970;SDS011;31681;48.982;8.394;2023-05-14T05:36:26;7.40;;;5.70;;
45970;SDS011;31681;48.982;8.394;2023-05-14T05:38:52;6.22;;;5.60;;
45970;SDS011;31681;48.982;8.394;2023-05-14T05:41:18;7.43;;;6.07;;
45970;SDS011;31681;48.982;8.394;2023-05-14T05:43:43;6.68;;;5.97;;
45970;SDS011;31681;48.982;8.394;2023-05-14T05:46:08;7.72;;;6.03;;
45970;SDS011;31681;48.982;8.394;2023-05-14T05:48:34;8.32;;;5.55;;
45970;SDS011;31681;48.982;8.394;2023-05-14T05:50:59;6.15;;;5.55;;
45970;SDS011;31681;48.982;8.394;2023-05-14T05:53:24;10.23;;;6.18;;
45970;SDS011;31681;48.982;8.394;2023-05-14T05:55:50;6.93;;;5.53;;
45970;SDS011;31681;48.982;8.394;2023-05-14T05:58:18;9.07;;;5.65;;
45970;SDS011;31681;48.982;8.394;2023-05-14T06:00:44;8.00;;;5.88;;
45970;SDS011;31681;48.982;8.394;2023-05-14T06:03:10;7.55;;;5.53;;
45970;SDS011;31681;48.982;8.394;2023-05-14T06:05:36;8.32;;;6.00;;
45970;SDS011;31681;48.982;8.394;2023-05-14T06:08:01;7.22;;;5.78;;
45970;SDS011;31681;48.982;8.394;2023-05-14T06:10:27;7.75;;;5.60;;
45970;SDS011;31681;48.982;8.394;2023-05-14T06:12:52;7.88;;;6.30;;
45970;SDS011;31681;48.982;8.394;2023-05-14T06:15:18;6.30;;;5.55;;
45970;SDS011;31681;48.982;8.394;2023-05-14T06:17:43;6.38;;;5.32;;
45970;SDS011;31681;48.982;8.394;2023-05-14T06:20:08;8.40;;;5.55;;
45970;SDS011;31681;48.982;8.394;2023-05-14T06:22:34;7.75;;;6.13;;
45970;SDS011;31681;48.982;8.394;2023-05-14T06:24:59;7.65;;;5.68;;
45970;SDS011;31681;48.982;8.394;2023-05-14T06:27:24;7.10;;;6.07;;
45970;SDS011;31681;48.982;8.394;2023-05-14T06:29:50;6.45;;;5.80;;
45970;SDS011;31681;48.982;8.394;2023-05-14T06:32:15;7.10;;;5.93;;
45970;SDS011;31681;48.982;8.394;2023-05-14T06:34:41;7.47;;;6.10;;
45970;SDS011;31681;48.982;8.394;2023-05-14T06:37:07;7.85;;;6.15;;
45970;SDS011;31681;48.982;8.394;2023-05-14T06:39:34;9.32;;;6.07;;
45970;SDS011;31681;48.982;8.394;2023-05-14T06:41:59;9.15;;;6.00;;
45970;SDS011;31681;48.982;8.394;2023-05-14T06:44:24;6.97;;;5.80;;
45970;SDS011;31681;48.982;8.394;2023-05-14T06:46:50;6.43;;;5.72;;
45970;SDS011;31681;48.982;8.394;2023-05-14T06:49:15;8.55;;;5.90;;
45970;SDS011;31681;48.982;8.394;2023-05-14T06:51:40;6.88;;;6.18;;
45970;SDS011;31681;48.982;8.394;2023-05-14T06:54:06;7.45;;;6.05;;
45970;SDS011;31681;48.982;8.394;2023-05-14T06:56:31;6.45;;;5.85;;
45970;SDS011;31681;48.982;8.394;2023-05-14T06:58:57;7.55;;;6.00;;
45970;SDS011;31681;48.982;8.394;2023-05-14T07:01:22;8.18;;;6.25;;
45970;SDS011;31681;48.982;8.394;2023-05-14T07:03:48;7.57;;;6.50;;
45970;SDS011;31681;48.982;8.394;2023-05-14T07:06:13;6.60;;;5.90;;
45970;SDS011;31681;48.982;8.394;2023-05-14T07:08:38;7.38;;;6.18;;
45970;SDS011;31681;48.982;8.394;2023-05-14T07:11:04;9.13;;;6.53;;
45970;SDS011;31681;48.982;8.394;2023-05-14T07:13:29;8.43;;;6.10;;
45970;SDS011;31681;48.982;8.394;2023-05-14T07:15:55;7.32;;;5.75;;
45970;SDS011;31681;48.982;8.394;2023-05-14T07:18:20;8.63;;;6.40;;
45970;SDS011;31681;48.982;8.394;2023-05-14T07:20:46;8.07;;;5.57;;
45970;SDS011;31681;48.982;8.394;2023-05-14T07:23:11;6.78;;;6.03;;
45970;SDS011;31681;48.982;8.394;2023-05-14T07:25:37;6.95;;;6.25;;
45970;SDS011;31681;48.982;8.394;2023-05-14T07:28:02;6.28;;;5.53;;
45970;SDS011;31681;48.982;8.394;2023-05-14T07:30:28;6.90;;;6.05;;
45970;SDS011;31681;48.982;8.394;2023-05-14T07:32:53;7.57;;;6.38;;
45970;SDS011;31681;48.982;8.394;2023-05-14T07:35:18;8.73;;;6.45;;
45970;SDS011;31681;48.982;8.394;2023-05-14T07:37:44;9.82;;;7.00;;
45970;SDS011;31681;48.982;8.394;2023-05-14T07:40:10;6.57;;;5.90;;
45970;SDS011;31681;48.982;8.394;2023-05-14T07:42:35;7.82;;;6.22;;
45970;SDS011;31681;48.982;8.394;2023-05-14T07:45:01;7.90;;;5.45;;
45970;SDS011;31681;48.982;8.394;2023-05-14T07:47:26;6.57;;;5.78;;
45970;SDS011;31681;48.982;8.394;2023-05-14T07:49:57;7.65;;;5.22;;
45970;SDS011;31681;48.982;8.394;2023-05-14T07:52:23;7.03;;;5.88;;
45970;SDS011;31681;48.982;8.394;2023-05-14T07:54:49;7.80;;;6.00;;
45970;SDS011;31681;48.982;8.394;2023-05-14T07:57:15;7.20;;;5.90;;
45970;SDS011;31681;48.982;8.394;2023-05-14T07:59:41;7.63;;;5.95;;
45970;SDS011;31681;48.982;8.394;2023-05-14T08:02:06;10.55;;;5.55;;
45970;SDS011;31681;48.982;8.394;2023-05-14T08:04:34;7.20;;;6.05;;
45970;SDS011;31681;48.982;8.394;2023-05-14T08:07:00;8.15;;;5.70;;
45970;SDS011;31681;48.982;8.394;2023-05-14T08:09:25;6.10;;;5.35;;
45970;SDS011;31681;48.982;8.394;2023-05-14T08:11:50;7.70;;;5.53;;
45970;SDS011;31681;48.982;8.394;2023-05-14T08:14:16;8.18;;;5.80;;
45970;SDS011;31681;48.982;8.394;2023-05-14T08:16:41;7.43;;;5.55;;
45970;SDS011;31681;48.982;8.394;2023-05-14T08:19:06;9.02;;;5.90;;
45970;SDS011;31681;48.982;8.394;2023-05-14T08:21:32;6.40;;;5.75;;
45970;SDS011;31681;48.982;8.394;2023-05-14T08:23:57;8.35;;;5.82;;
45970;SDS011;31681;48.982;8.394;2023-05-14T08:26:23;7.05;;;6.05;;
45970;SDS011;31681;48.982;8.394;2023-05-14T08:28:48;6.80;;;5.78;;
45970;SDS011;31681;48.982;8.394;2023-05-14T08:31:14;9.45;;;5.85;;
45970;SDS011;31681;48.982;8.394;2023-05-14T08:33:39;7.68;;;5.97;;
45970;SDS011;31681;48.982;8.394;2023-05-14T08:36:05;6.63;;;5.93;;
45970;SDS011;31681;48.982;8.394;2023-05-14T08:38:31;6.80;;;5.68;;
45970;SDS011;31681;48.982;8.394;2023-05-14T08:40:57;5.90;;;5.30;;
45970;SDS011;31681;48.982;8.394;2023-05-14T08:43:25;7.18;;;5.85;;
45970;SDS011;31681;48.982;8.394;2023-05-14T08:45:51;6.88;;;5.45;;
45970;SDS011;31681;48.982;8.394;2023-05-14T08:48:18;6.32;;;5.55;;
45970;SDS011;31681;48.982;8.394;2023-05-14T08:50:45;7.63;;;5.10;;
45970;SDS011;31681;48.982;8.394;2023-05-14T08:53:10;5.57;;;5.00;;
45970;SDS011;31681;48.982;8.394;2023-05-14T08:55:36;5.63;;;4.80;;
45970;SDS011;31681;48.982;8.394;2023-05-14T08:58:01;6.97;;;5.10;;
45970;SDS011;31681;48.982;8.394;2023-05-14T09:00:27;6.00;;;5.40;;
45970;SDS011;31681;48.982;8.394;2023-05-14T09:02:52;7.18;;;5.15;;
45970;SDS011;31681;48.982;8.394;2023-05-14T09:05:18;5.72;;;5.13;;
45970;SDS011;31681;48.982;8.394;2023-05-14T09:07:44;5.97;;;4.90;;
45970;SDS011;31681;48.982;8.394;2023-05-14T09:10:10;6.18;;;4.80;;
45970;SDS011;31681;48.982;8.394;2023-05-14T09:12:35;5.80;;;5.00;;
45970;SDS011;31681;48.982;8.394;2023-05-14T09:15:01;6.72;;;5.15;;
45970;SDS011;31681;48.982;8.394;2023-05-14T09:17:26;6.68;;;4.70;;
45970;SDS011;31681;48.982;8.394;2023-05-14T09:19:52;3.97;;;3.58;;
45970;SDS011;31681;48.982;8.394;2023-05-14T09:22:17;5.38;;;4.13;;
45970;SDS011;31681;48.982;8.394;2023-05-14T09:24:43;4.45;;;4.05;;
45970;SDS011;31681;48.982;8.394;2023-05-14T09:27:14;5.32;;;4.20;;
45970;SDS011;31681;48.982;8.394;2023-05-14T09:29:42;5.15;;;4.28;;
45970;SDS011;31681;48.982;8.394;2023-05-14T09:32:07;5.32;;;3.75;;
45970;SDS011;31681;48.982;8.394;2023-05-14T09:34:34;4.38;;;3.97;;
45970;SDS011;31681;48.982;8.394;2023-05-14T09:37:03;4.50;;;3.90;;
45970;SDS011;31681;48.982;8.394;2023-05-14T09:39:30;4.00;;;3.60;;
45970;SDS011;31681;48.982;8.394;2023-05-14T09:41:56;3.42;;;3.00;;
45970;SDS011;31681;48.982;8.394;2023-05-14T09:44:21;3.33;;;3.03;;
45970;SDS011;31681;48.982;8.394;2023-05-14T09:46:47;3.95;;;3.50;;
45970;SDS011;31681;48.982;8.394;2023-05-14T09:49:13;4.53;;;3.53;;
45970;SDS011;31681;48.982;8.394;2023-05-14T09:51:38;5.10;;;3.92;;
45970;SDS011;31681;48.982;8.394;2023-05-14T09:54:04;4.32;;;3.60;;
45970;SDS011;31681;48.982;8.394;2023-05-14T09:56:31;5.32;;;3.95;;
45970;SDS011;31681;48.982;8.394;2023-05-14T09:58:56;5.72;;;4.10;;
45970;SDS011;31681;48.982;8.394;2023-05-14T10:01:22;4.13;;;3.72;;
45970;SDS011;31681;48.982;8.394;2023-05-14T10:03:48;3.75;;;3.45;;
45970;SDS011;31681;48.982;8.394;2023-05-14T10:06:14;3.17;;;2.90;;
45970;SDS011;31681;48.982;8.394;2023-05-14T10:08:41;3.75;;;3.05;;
45970;SDS011;31681;48.982;8.394;2023-05-14T10:11:10;3.35;;;3.05;;
45970;SDS011;31681;48.982;8.394;2023-05-14T10:13:38;3.38;;;3.05;;
45970;SDS011;31681;48.982;8.394;2023-05-14T10:18:40;4.30;;;3.15;;
45970;SDS011;31681;48.982;8.394;2023-05-14T10:21:06;3.40;;;2.92;;
45970;SDS011;31681;48.982;8.394;2023-05-14T10:23:35;4.68;;;4.05;;
45970;SDS011;31681;48.982;8.394;2023-05-14T10:26:03;5.47;;;4.35;;
45970;SDS011;31681;48.982;8.394;2023-05-14T10:28:29;5.47;;;4.75;;
45970;SDS011;31681;48.982;8.394;2023-05-14T10:30:56;6.78;;;4.95;;
45970;SDS011;31681;48.982;8.394;2023-05-14T10:33:23;5.85;;;4.80;;
45970;SDS011;31681;48.982;8.394;2023-05-14T10:38:27;5.20;;;4.70;;
45970;SDS011;31681;48.982;8.394;2023-05-14T10:40:56;4.97;;;4.47;;
45970;SDS011;31681;48.982;8.394;2023-05-14T10:43:23;5.28;;;4.32;;
45970;SDS011;31681;48.982;8.394;2023-05-14T10:45:49;4.00;;;3.55;;
45970;SDS011;31681;48.982;8.394;2023-05-14T10:48:15;4.75;;;3.72;;
45970;SDS011;31681;48.982;8.394;2023-05-14T10:50:41;4.50;;;4.10;;
45970;SDS011;31681;48.982;8.394;2023-05-14T10:53:09;5.43;;;4.40;;
45970;SDS011;31681;48.982;8.394;2023-05-14T10:55:34;5.13;;;4.53;;
45970;SDS011;31681;48.982;8.394;2023-05-14T10:58:02;5.55;;;4.90;;
45970;SDS011;31681;48.982;8.394;2023-05-14T11:00:28;5.45;;;4.47;;
45970;SDS011;31681;48.982;8.394;2023-05-14T11:02:54;4.85;;;4.25;;
45970;SDS011;31681;48.982;8.394;2023-05-14T11:05:20;5.65;;;4.70;;
45970;SDS011;31681;48.982;8.394;2023-05-14T11:07:46;5.88;;;4.50;;
45970;SDS011;31681;48.982;8.394;2023-05-14T11:10:12;4.60;;;4.00;;
45970;SDS011;31681;48.982;8.394;2023-05-14T11:12:48;6.25;;;4.55;;
45970;SDS011;31681;48.982;8.394;2023-05-14T11:15:14;5.88;;;4.97;;
45970;SDS011;31681;48.982;8.394;2023-05-14T11:17:41;5.88;;;5.28;;
45970;SDS011;31681;48.982;8.394;2023-05-14T11:20:07;6.00;;;4.40;;
45970;SDS011;31681;48.982;8.394;2023-05-14T11:22:33;5.63;;;4.82;;
45970;SDS011;31681;48.982;8.394;2023-05-14T11:24:59;5.78;;;4.88;;
45970;SDS011;31681;48.982;8.394;2023-05-14T11:27:24;6.88;;;4.32;;
45970;SDS011;31681;48.982;8.394;2023-05-14T11:29:50;5.70;;;4.40;;
45970;SDS011;31681;48.982;8.394;2023-05-14T11:32:16;5.35;;;4.70;;
45970;SDS011;31681;48.982;8.394;2023-05-14T11:34:42;5.15;;;4.45;;
45970;SDS011;31681;48.982;8.394;2023-05-14T11:37:11;7.10;;;4.85;;
45970;SDS011;31681;48.982;8.394;2023-05-14T11:39:37;4.68;;;4.18;;
45970;SDS011;31681;48.982;8.394;2023-05-14T11:42:03;5.57;;;4.15;;
45970;SDS011;31681;48.982;8.394;2023-05-14T11:44:30;6.85;;;4.78;;
45970;SDS011;31681;48.982;8.394;2023-05-14T11:46:56;6.10;;;4.32;;
45970;SDS011;31681;48.982;8.394;2023-05-14T11:49:22;6.18;;;4.40;;
45970;SDS011;31681;48.982;8.394;2023-05-14T11:51:48;8.50;;;7.20;;
45970;SDS011;31681;48.982;8.394;2023-05-14T11:54:13;4.60;;;4.15;;
45970;SDS011;31681;48.982;8.394;2023-05-14T11:56:40;4.88;;;3.70;;
45970;SDS011;31681;48.982;8.394;2023-05-14T11:59:06;6.93;;;4.78;;
45970;SDS011;31681;48.982;8.394;2023-05-14T12:01:38;5.60;;;4.63;;
45970;SDS011;31681;48.982;8.394;2023-05-14T12:04:03;4.85;;;4.32;;
45970;SDS011;31681;48.982;8.394;2023-05-14T12:06:29;6.32;;;4.63;;
45970;SDS011;31681;48.982;8.394;2023-05-14T12:08:55;4.78;;;4.38;;
45970;SDS011;31681;48.982;8.394;2023-05-14T12:11:20;4.90;;;4.13;;
45970;SDS011;31681;48.982;8.394;2023-05-14T12:13:46;4.63;;;4.22;;
45970;SDS011;31681;48.982;8.394;2023-05-14T12:16:11;4.55;;;4.15;;
45970;SDS011;31681;48.982;8.394;2023-05-14T12:18:37;5.07;;;4.05;;
45970;SDS011;31681;48.982;8.394;2023-05-14T12:21:02;4.10;;;3.70;;
45970;SDS011;31681;48.982;8.394;2023-05-14T12:23:28;4.70;;;4.18;;
45970;SDS011;31681;48.982;8.394;2023-05-14T12:25:54;4.22;;;3.78;;
45970;SDS011;31681;48.982;8.394;2023-05-14T12:28:21;4.85;;;4.38;;
45970;SDS011;31681;48.982;8.394;2023-05-14T12:30:47;5.60;;;5.07;;
45970;SDS011;31681;48.982;8.394;2023-05-14T12:33:13;5.05;;;4.55;;
45970;SDS011;31681;48.982;8.394;2023-05-14T12:35:40;4.75;;;3.58;;
45970;SDS011;31681;48.982;8.394;2023-05-14T12:38:05;4.07;;;3.63;;
45970;SDS011;31681;48.982;8.394;2023-05-14T12:40:31;4.30;;;3.90;;
45970;SDS011;31681;48.982;8.394;2023-05-14T12:42:56;4.35;;;3.95;;
45970;SDS011;31681;48.982;8.394;2023-05-14T12:45:21;6.43;;;4.70;;
45970;SDS011;31681;48.982;8.394;2023-05-14T12:47:47;4.05;;;3.65;;
45970;SDS011;31681;48.982;8.394;2023-05-14T12:50:12;4.95;;;4.00;;
45970;SDS011;31681;48.982;8.394;2023-05-14T12:52:38;3.47;;;3.17;;
45970;SDS011;31681;48.982;8.394;2023-05-14T12:55:03;4.68;;;3.75;;
45970;SDS011;31681;48.982;8.394;2023-05-14T12:57:29;5.18;;;3.72;;
45970;SDS011;31681;48.982;8.394;2023-05-14T12:59:55;4.93;;;4.03;;
45970;SDS011;31681;48.982;8.394;2023-05-14T13:02:20;4.47;;;3.83;;
45970;SDS011;31681;48.982;8.394;2023-05-14T13:04:46;4.18;;;3.67;;
45970;SDS011;31681;48.982;8.394;2023-05-14T13:07:11;4.72;;;4.18;;
45970;SDS011;31681;48.982;8.394;2023-05-14T13:09:36;4.15;;;3.75;;
45970;SDS011;31681;48.982;8.394;2023-05-14T13:12:02;5.97;;;4.13;;
45970;SDS011;31681;48.982;8.394;2023-05-14T13:14:27;4.68;;;3.83;;
45970;SDS011;31681;48.982;8.394;2023-05-14T13:16:53;4.20;;;3.80;;
45970;SDS011;31681;48.982;8.394;2023-05-14T13:19:18;4.38;;;3.53;;
45970;SDS011;31681;48.982;8.394;2023-05-14T13:21:44;4.10;;;3.70;;
45970;SDS011;31681;48.982;8.394;2023-05-14T13:24:09;4.32;;;3.92;;
45970;SDS011;31681;48.982;8.394;2023-05-14T13:26:35;4.32;;;3.92;;
45970;SDS011;31681;48.982;8.394;2023-05-14T13:29:00;4.45;;;3.50;;
45970;SDS011;31681;48.982;8.394;2023-05-14T13:31:26;3.67;;;3.38;;
45970;SDS011;31681;48.982;8.394;2023-05-14T13:33:51;4.28;;;3.75;;
45970;SDS011;31681;48.982;8.394;2023-05-14T13:36:17;5.43;;;3.75;;
45970;SDS011;31681;48.982;8.394;2023-05-14T13:38:42;3.85;;;3.45;;
45970;SDS011;31681;48.982;8.394;2023-05-14T13:41:09;5.03;;;3.60;;
45970;SDS011;31681;48.982;8.394;2023-05-14T13:43:35;4.88;;;3.50;;
45970;SDS011;31681;48.982;8.394;2023-05-14T13:46:01;4.15;;;3.75;;
45970;SDS011;31681;48.982;8.394;2023-05-14T13:48:26;5.82;;;3.70;;
45970;SDS011;31681;48.982;8.394;2023-05-14T13:50:52;4.60;;;4.00;;
45970;SDS011;31681;48.982;8.394;2023-05-14T13:53:18;4.20;;;3.40;;
45970;SDS011;31681;48.982;8.394;2023-05-14T13:55:44;4.70;;;3.40;;
45970;SDS011;31681;48.982;8.394;2023-05-14T13:58:09;3.88;;;3.38;;
45970;SDS011;31681;48.982;8.394;2023-05-14T14:00:35;4.18;;;3.65;;
45970;SDS011;31681;48.982;8.394;2023-05-14T14:03:00;3.90;;;3.40;;
45970;SDS011;31681;48.982;8.394;2023-05-14T14:05:25;3.72;;;3.42;;
45970;SDS011;31681;48.982;8.394;2023-05-14T14:07:53;4.63;;;3.90;;
45970;SDS011;31681;48.982;8.394;2023-05-14T14:10:18;4.05;;;3.70;;
45970;SDS011;31681;48.982;8.394;2023-05-14T14:12:43;4.07;;;3.67;;
45970;SDS011;31681;48.982;8.394;2023-05-14T14:15:09;5.57;;;3.95;;
45970;SDS011;31681;48.982;8.394;2023-05-14T14:17:35;4.03;;;3.60;;
45970;SDS011;31681;48.982;8.394;2023-05-14T14:20:00;4.22;;;3.50;;
45970;SDS011;31681;48.982;8.394;2023-05-14T14:22:26;4.47;;;3.67;;
45970;SDS011;31681;48.982;8.394;2023-05-14T14:24:51;3.55;;;3.25;;
45970;SDS011;31681;48.982;8.394;2023-05-14T14:27:18;4.88;;;3.90;;
45970;SDS011;31681;48.982;8.394;2023-05-14T14:29:44;3.72;;;3.20;;
45970;SDS011;31681;48.982;8.394;2023-05-14T14:32:09;4.30;;;3.15;;
45970;SDS011;31681;48.982;8.394;2023-05-14T14:34:34;5.63;;;3.53;;
45970;SDS011;31681;48.982;8.394;2023-05-14T14:37:00;3.83;;;3.53;;
45970;SDS011;31681;48.982;8.394;2023-05-14T14:39:25;5.82;;;3.60;;
45970;SDS011;31681;48.982;8.394;2023-05-14T14:41:51;6.32;;;4.03;;
45970;SDS011;31681;48.982;8.394;2023-05-14T14:44:16;3.58;;;3.28;;
45970;SDS011;31681;48.982;8.394;2023-05-14T14:46:41;4.85;;;3.33;;
45970;SDS011;31681;48.982;8.394;2023-05-14T14:49:07;3.90;;;3.50;;
45970;SDS011;31681;48.982;8.394;2023-05-14T14:51:32;4.22;;;3.60;;
45970;SDS011;31681;48.982;8.394;2023-05-14T14:53:57;4.68;;;3.70;;